createdAt,value
2022-11-24T00:01:26.887Z,5.76
2022-11-24T00:04:01.125Z,5.74
2022-11-24T00:06:28.901Z,5.74
2022-11-24T00:08:56.311Z,5.84
2022-11-24T00:11:25.877Z,5.94
2022-11-24T00:13:53.160Z,6.03
2022-11-24T00:16:23.361Z,6.12
2022-11-24T00:18:52.418Z,6.18
2022-11-24T00:21:20.495Z,6.24
2022-11-24T00:23:48.698Z,6.25
2022-11-24T00:26:19.481Z,6.21
2022-11-24T00:28:47.845Z,6.14
2022-11-24T00:31:25.507Z,6.02
2022-11-24T00:33:55.200Z,5.93
2022-11-24T00:36:23.624Z,5.83
2022-11-24T00:38:59.106Z,5.72
2022-11-24T00:41:27.196Z,5.72
2022-11-24T00:43:54.872Z,5.77
2022-11-24T00:46:22.870Z,5.84
2022-11-24T00:48:50.256Z,5.88
2022-11-24T00:51:21.699Z,5.93
2022-11-24T00:53:48.777Z,5.95
2022-11-24T00:56:16.023Z,6.06
2022-11-24T00:58:42.909Z,6.08
2022-11-24T01:01:13.438Z,6.07
2022-11-24T01:03:40.515Z,5.94
2022-11-24T01:06:19.175Z,5.83
2022-11-24T01:08:46.853Z,5.72
2022-11-24T01:11:15.212Z,5.63
2022-11-24T01:13:43.547Z,5.58
2022-11-24T01:16:24.695Z,5.51
2022-11-24T01:18:52.294Z,5.46
2022-11-24T01:21:19.365Z,5.37
2022-11-24T01:23:46.754Z,5.31
2022-11-24T01:26:16.896Z,5.26
2022-11-24T01:28:47.131Z,5.20
2022-11-24T01:31:15.495Z,5.18
2022-11-24T01:33:42.648Z,5.17
2022-11-24T01:36:09.444Z,5.19
2022-11-24T01:38:36.208Z,5.22
2022-11-24T01:41:11.498Z,5.23
2022-11-24T01:43:38.910Z,5.30
2022-11-24T01:46:26.947Z,5.36
2022-11-24T01:49:05.723Z,5.45
2022-11-24T01:51:36.169Z,5.50
2022-11-24T01:54:11.050Z,5.56
2022-11-24T01:56:40.745Z,5.61
2022-11-24T01:59:11.379Z,5.67
2022-11-24T02:01:38.236Z,5.72
2022-11-24T02:04:10.978Z,5.77
2022-11-24T02:06:40.323Z,5.74
2022-11-24T02:09:24.212Z,5.84
2022-11-24T02:11:52.171Z,5.85
2022-11-24T02:14:21.077Z,5.82
2022-11-24T02:16:53.347Z,5.86
2022-11-24T02:19:35.144Z,5.87
2022-11-24T02:22:03.333Z,5.93
2022-11-24T02:24:43.051Z,5.98
2022-11-24T02:27:11.123Z,6.09
2022-11-24T02:29:38.645Z,6.14
2022-11-24T02:32:09.602Z,6.19
2022-11-24T02:34:36.838Z,6.27
2022-11-24T02:37:03.687Z,6.37
2022-11-24T02:39:30.419Z,6.45
2022-11-24T02:42:03.201Z,6.50
2022-11-24T02:44:36.000Z,6.56
2022-11-24T02:47:11.488Z,6.64
2022-11-24T02:49:38.921Z,6.70
2022-11-24T02:52:06.518Z,6.77
2022-11-24T02:54:33.730Z,6.80
2022-11-24T02:57:00.851Z,6.82
2022-11-24T02:59:27.575Z,6.88
2022-11-24T03:01:54.485Z,6.92
2022-11-24T03:04:21.347Z,7.00
2022-11-24T03:06:48.117Z,7.06
2022-11-24T03:09:14.982Z,7.13
2022-11-24T03:11:41.893Z,7.17
2022-11-24T03:14:08.900Z,7.19
2022-11-24T03:16:35.938Z,7.20
2022-11-24T03:19:03.179Z,7.21
2022-11-24T03:21:30.009Z,7.16
2022-11-24T03:23:56.832Z,7.08
2022-11-24T03:26:25.524Z,7.05
2022-11-24T03:28:57.422Z,7.04
2022-11-24T03:31:24.848Z,7.05
2022-11-24T03:33:51.735Z,7.07
2022-11-24T03:36:18.657Z,7.12
2022-11-24T03:38:45.421Z,7.15
2022-11-24T03:41:12.357Z,7.23
2022-11-24T03:43:43.519Z,7.27
2022-11-24T03:46:11.401Z,7.36
2022-11-24T03:48:38.250Z,7.44
2022-11-24T03:51:05.231Z,7.53
2022-11-24T03:53:33.805Z,7.59
2022-11-24T03:56:02.118Z,7.66
2022-11-24T03:58:29.841Z,7.67
2022-11-24T04:00:57.127Z,7.73
2022-11-24T04:03:24.538Z,7.79
2022-11-24T04:05:51.933Z,7.86
2022-11-24T04:08:19.106Z,7.93
2022-11-24T04:10:50.754Z,7.98
2022-11-24T04:13:19.254Z,8.06
2022-11-24T04:15:46.421Z,8.12
2022-11-24T04:18:13.930Z,8.14
2022-11-24T04:20:42.264Z,8.20
2022-11-24T04:23:10.411Z,8.23
2022-11-24T04:25:37.611Z,8.25
2022-11-24T04:28:04.665Z,8.27
2022-11-24T04:30:31.450Z,8.36
2022-11-24T04:32:58.261Z,8.44
2022-11-24T04:35:25.142Z,8.41
2022-11-24T04:37:51.899Z,8.55
2022-11-24T04:40:19.217Z,8.57
2022-11-24T04:42:54.607Z,8.59
2022-11-24T04:45:22.061Z,8.62
2022-11-24T04:47:48.841Z,8.61
2022-11-24T04:50:16.094Z,8.58
2022-11-24T04:52:43.733Z,8.58
2022-11-24T04:55:10.776Z,8.61
2022-11-24T04:57:37.602Z,8.66
2022-11-24T05:00:04.793Z,8.71
2022-11-24T05:02:31.529Z,8.79
2022-11-24T05:04:58.266Z,8.91
2022-11-24T05:07:25.118Z,9.04
2022-11-24T05:10:10.488Z,9.12
2022-11-24T05:12:37.287Z,9.18
2022-11-24T05:15:05.495Z,9.24
2022-11-24T05:17:34.813Z,9.32
2022-11-24T05:20:01.674Z,9.37
2022-11-24T05:22:29.325Z,9.40
2022-11-24T05:24:56.189Z,9.40
2022-11-24T05:27:23.210Z,9.45
2022-11-24T05:29:50.061Z,9.47
2022-11-24T05:32:17.028Z,9.46
2022-11-24T05:34:43.738Z,9.49
2022-11-24T05:37:10.548Z,9.53
2022-11-24T05:39:37.351Z,9.58
2022-11-24T05:42:28.166Z,9.62
2022-11-24T05:44:55.273Z,9.68
2022-11-24T05:47:22.216Z,9.69
2022-11-24T05:49:49.024Z,9.71
2022-11-24T05:52:16.708Z,9.75
2022-11-24T05:54:43.526Z,9.78
2022-11-24T05:57:10.291Z,9.82
2022-11-24T05:59:37.156Z,9.83
2022-11-24T06:02:04.185Z,9.84
2022-11-24T06:04:31.928Z,9.89
2022-11-24T06:06:58.966Z,9.92
2022-11-24T06:09:25.714Z,9.97
2022-11-24T06:11:52.490Z,10.05
2022-11-24T06:14:19.270Z,10.08
2022-11-24T06:16:46.241Z,10.06
2022-11-24T06:19:13.363Z,9.97
2022-11-24T06:21:40.138Z,9.90
2022-11-24T06:24:07.387Z,9.81
2022-11-24T06:26:34.348Z,9.75
2022-11-24T06:29:01.522Z,9.67
2022-11-24T06:31:28.329Z,9.64
2022-11-24T06:33:55.079Z,9.65
2022-11-24T06:36:21.906Z,9.66
2022-11-24T06:38:48.647Z,9.68
2022-11-24T06:41:16.710Z,9.68
2022-11-24T06:43:43.859Z,9.66
2022-11-24T06:46:11.712Z,9.64
2022-11-24T06:48:39.138Z,9.62
2022-11-24T06:51:08.542Z,9.61
2022-11-24T06:53:37.896Z,9.61
2022-11-24T06:56:12.093Z,9.59
2022-11-24T06:58:44.695Z,9.60
2022-11-24T07:01:23.250Z,9.58
2022-11-24T07:03:51.510Z,9.57
2022-11-24T07:06:19.044Z,9.56
2022-11-24T07:08:46.425Z,9.54
2022-11-24T07:11:20.775Z,9.47
2022-11-24T07:13:48.356Z,9.40
2022-11-24T07:16:16.432Z,9.30
2022-11-24T07:18:44.657Z,9.17
2022-11-24T07:21:11.573Z,9.00
2022-11-24T07:23:38.482Z,8.84
2022-11-24T07:26:07.088Z,8.70
2022-11-24T07:28:34.849Z,8.66
2022-11-24T07:31:12.915Z,8.57
2022-11-24T07:33:40.401Z,8.57
2022-11-24T07:36:08.474Z,8.54
2022-11-24T07:38:36.373Z,8.53
2022-11-24T07:41:08.470Z,8.50
2022-11-24T07:43:36.720Z,8.43
2022-11-24T07:46:04.872Z,8.40
2022-11-24T07:48:32.294Z,8.36
2022-11-24T07:51:00.569Z,8.35
2022-11-24T07:53:27.759Z,8.29
2022-11-24T07:55:56.437Z,8.19
2022-11-24T07:58:25.529Z,8.11
2022-11-24T08:00:56.337Z,8.01
2022-11-24T08:03:23.984Z,7.95
2022-11-24T08:08:46.195Z,8.01
2022-11-24T08:11:15.595Z,8.09
2022-11-24T08:13:43.081Z,8.10
2022-11-24T08:16:15.536Z,8.07
2022-11-24T08:18:43.192Z,7.99
2022-11-24T08:21:14.223Z,7.91
2022-11-24T08:23:42.097Z,7.79
2022-11-24T08:26:13.948Z,7.70
2022-11-24T08:28:41.092Z,7.64
2022-11-24T08:31:11.043Z,7.60
2022-11-24T08:33:38.177Z,7.65
2022-11-24T08:36:10.564Z,7.64
2022-11-24T08:38:37.899Z,7.65
2022-11-24T08:41:13.299Z,7.63
2022-11-24T08:43:40.878Z,7.62
2022-11-24T08:46:13.813Z,7.59
2022-11-24T08:48:41.851Z,7.57
2022-11-24T08:51:14.025Z,7.61
2022-11-24T08:53:41.424Z,7.66
2022-11-24T08:56:10.631Z,7.68
2022-11-24T08:58:38.313Z,7.68
2022-11-24T09:01:12.675Z,7.70
2022-11-24T09:03:43.560Z,7.65
2022-11-24T09:06:16.381Z,7.61
2022-11-24T09:08:43.140Z,7.61
2022-11-24T09:11:13.314Z,7.62
2022-11-24T09:13:41.026Z,7.70
2022-11-24T09:16:11.008Z,7.74
2022-11-24T09:18:38.114Z,7.82
2022-11-24T09:21:20.375Z,7.82
2022-11-24T09:23:49.218Z,7.88
2022-11-24T09:26:19.340Z,7.81
2022-11-24T09:28:47.159Z,7.79
2022-11-24T09:31:16.334Z,7.87
2022-11-24T09:33:43.250Z,7.97
2022-11-24T09:36:10.426Z,8.06
2022-11-24T09:38:37.550Z,8.16
2022-11-24T09:41:21.717Z,8.23
2022-11-24T09:44:10.182Z,8.34
2022-11-24T09:46:56.934Z,8.42
2022-11-24T09:49:54.771Z,8.51
2022-11-24T09:52:46.494Z,8.45
2022-11-24T09:55:42.681Z,8.35
2022-11-24T09:58:18.752Z,8.48
2022-11-24T10:00:48.781Z,8.56
2022-11-24T10:03:20.592Z,8.67
2022-11-24T10:05:50.893Z,8.77
2022-11-24T10:08:39.753Z,8.81
2022-11-24T10:11:14.209Z,8.71
2022-11-24T10:13:53.105Z,8.63
2022-11-24T10:16:53.779Z,8.70
2022-11-24T10:19:36.373Z,8.80
2022-11-24T10:22:12.890Z,8.84
2022-11-24T10:24:48.467Z,8.85
2022-11-24T10:27:15.383Z,8.84
2022-11-24T10:29:43.300Z,8.81
2022-11-24T10:32:30.340Z,8.75
2022-11-24T10:35:03.081Z,8.75
2022-11-24T10:37:40.806Z,8.74
2022-11-24T10:40:40.966Z,8.76
2022-11-24T10:43:11.092Z,8.76
2022-11-24T10:45:39.544Z,8.83
2022-11-24T10:48:20.708Z,8.97
2022-11-24T10:50:47.469Z,9.07
2022-11-24T10:53:30.504Z,9.02
2022-11-24T10:55:59.838Z,8.99
2022-11-24T10:58:37.900Z,8.94
2022-11-24T11:01:13.912Z,8.92
2022-11-24T11:03:55.412Z,8.88
2022-11-24T11:06:27.475Z,8.83
2022-11-24T11:09:06.385Z,8.91
2022-11-24T11:11:34.650Z,9.07
2022-11-24T11:14:04.843Z,9.14
2022-11-24T11:16:38.020Z,9.13
2022-11-24T11:19:47.863Z,9.11
2022-11-24T11:22:12.606Z,9.03
2022-11-24T11:24:40.890Z,9.03
2022-11-24T11:27:21.179Z,9.00
2022-11-24T11:35:27.194Z,9.13
2022-11-24T11:37:55.876Z,9.03
2022-11-24T11:40:28.810Z,9.02
2022-11-24T11:43:06.952Z,8.94
2022-11-24T11:45:41.848Z,8.94
2022-11-24T11:48:15.378Z,8.87
2022-11-24T11:53:48.606Z,9.06
2022-11-24T11:56:40.481Z,9.28
2022-11-24T11:59:51.602Z,9.48
2022-11-24T12:02:48.592Z,9.66
2022-11-24T12:05:44.360Z,9.69
2022-11-24T12:08:21.075Z,9.62
2022-11-24T12:10:54.293Z,9.59
2022-11-24T12:13:48.166Z,9.50
2022-11-24T12:16:53.288Z,9.46
2022-11-24T12:19:45.958Z,9.36
2022-11-24T12:22:35.882Z,9.30
2022-11-24T12:25:20.976Z,9.18
2022-11-24T12:28:21.726Z,9.08
2022-11-24T12:31:02.101Z,9.03
2022-11-24T12:33:53.232Z,8.95
2022-11-24T12:36:22.051Z,8.94
2022-11-24T12:38:54.662Z,9.01
2022-11-24T12:41:56.815Z,9.13
2022-11-24T12:44:55.359Z,9.41
2022-11-24T12:47:53.200Z,9.78
2022-11-24T12:50:24.046Z,9.96
2022-11-24T12:52:58.815Z,9.93
2022-11-24T12:55:28.135Z,9.76
2022-11-24T12:58:26.072Z,9.59
2022-11-24T13:00:58.768Z,9.44
2022-11-24T13:03:37.508Z,9.33
2022-11-24T13:06:12.983Z,9.28
2022-11-24T13:08:40.427Z,9.28
2022-11-24T13:11:22.220Z,9.31
2022-11-24T13:14:14.074Z,9.46
2022-11-24T13:19:42.559Z,9.98
2022-11-24T13:22:09.496Z,10.02
2022-11-24T13:24:40.556Z,10.09
2022-11-24T13:27:16.416Z,10.06
2022-11-24T13:29:47.976Z,10.04
2022-11-24T13:32:14.698Z,10.02
2022-11-24T13:34:42.910Z,10.07
2022-11-24T13:37:31.311Z,10.06
2022-11-24T13:40:14.452Z,10.15
2022-11-24T13:43:07.766Z,10.14
2022-11-24T13:45:41.128Z,10.24
2022-11-24T13:48:20.694Z,10.21
2022-11-24T13:50:51.148Z,10.24
2022-11-24T13:53:44.098Z,10.09
2022-11-24T13:56:13.817Z,10.06
2022-11-24T13:58:52.555Z,9.98
2022-11-24T14:01:25.620Z,9.88
2022-11-24T14:04:29.324Z,9.85
2022-11-24T14:07:06.977Z,9.74
2022-11-24T14:09:51.892Z,9.67
2022-11-24T14:12:21.119Z,9.59
2022-11-24T14:14:49.981Z,9.42
2022-11-24T14:17:27.850Z,9.25
2022-11-24T14:19:56.934Z,9.14
2022-11-24T14:22:27.874Z,9.01
2022-11-24T14:24:59.951Z,8.92
2022-11-24T14:27:30.827Z,8.83
2022-11-24T14:30:04.134Z,8.78
2022-11-24T14:32:31.081Z,8.75
2022-11-24T14:34:58.024Z,8.62
2022-11-24T14:37:24.923Z,8.51
2022-11-24T14:39:51.850Z,8.33
2022-11-24T14:42:24.627Z,8.32
2022-11-24T14:44:56.729Z,8.42
2022-11-24T14:47:31.664Z,8.50
2022-11-24T14:50:16.721Z,8.49
2022-11-24T14:52:58.138Z,8.41
2022-11-24T14:55:28.101Z,8.25
2022-11-24T14:57:55.404Z,8.20
2022-11-24T15:00:24.894Z,8.08
2022-11-24T15:03:07.329Z,8.02
2022-11-24T15:05:54.976Z,7.96
2022-11-24T15:08:24.232Z,7.91
2022-11-24T15:11:03.169Z,7.89
2022-11-24T15:13:37.237Z,7.91
2022-11-24T15:16:16.002Z,7.83
2022-11-24T15:18:45.989Z,7.79
2022-11-24T15:21:18.899Z,7.78
2022-11-24T15:24:13.501Z,7.67
2022-11-24T15:26:42.189Z,7.69
2022-11-24T15:29:10.687Z,7.67
2022-11-24T15:31:38.660Z,7.68
2022-11-24T15:34:05.911Z,7.66
2022-11-24T15:36:33.354Z,7.57
2022-11-24T15:39:00.063Z,7.45
2022-11-24T15:41:32.127Z,7.31
2022-11-24T15:43:59.486Z,7.22
2022-11-24T15:46:27.924Z,7.15
2022-11-24T15:48:55.275Z,7.11
2022-11-24T15:51:25.479Z,7.11
2022-11-24T15:53:58.867Z,7.09
2022-11-24T15:56:34.083Z,7.06
2022-11-24T15:59:01.683Z,7.04
2022-11-24T16:01:32.848Z,7.03
2022-11-24T16:04:00.682Z,7.01
2022-11-24T16:06:27.515Z,6.96
2022-11-24T16:08:54.807Z,6.94
2022-11-24T16:11:22.426Z,6.93
2022-11-24T16:13:52.919Z,6.89
2022-11-24T16:16:21.637Z,6.90
2022-11-24T16:18:48.560Z,6.93
2022-11-24T16:21:15.409Z,6.95
2022-11-24T16:23:42.287Z,6.96
2022-11-24T16:26:10.331Z,6.97
2022-11-24T16:28:37.010Z,6.99
2022-11-24T16:31:04.046Z,6.99
2022-11-24T16:33:32.568Z,6.96
2022-11-24T16:35:59.359Z,6.96
2022-11-24T16:38:26.208Z,6.93
2022-11-24T16:40:59.240Z,6.90
2022-11-24T16:43:28.399Z,6.87
2022-11-24T16:46:18.631Z,6.83
2022-11-24T16:48:46.991Z,6.78
2022-11-24T16:51:14.720Z,6.70
2022-11-24T16:53:41.519Z,6.62
2022-11-24T16:56:09.530Z,6.54
2022-11-24T16:58:40.874Z,6.51
2022-11-24T17:01:08.903Z,6.47
2022-11-24T17:03:38.740Z,6.45
2022-11-24T17:06:08.374Z,6.40
2022-11-24T17:08:36.790Z,6.33
2022-11-24T17:11:17.218Z,6.36
2022-11-24T17:13:45.797Z,6.38
2022-11-24T17:16:14.943Z,6.40
2022-11-24T17:18:42.096Z,6.42
2022-11-24T17:21:15.781Z,6.45
2022-11-24T17:23:42.775Z,6.46
2022-11-24T17:26:14.514Z,6.46
2022-11-24T17:28:41.961Z,6.44
2022-11-24T17:31:29.915Z,6.37
2022-11-24T17:33:58.396Z,6.33
2022-11-24T17:36:26.153Z,6.32
2022-11-24T17:38:53.294Z,6.31
2022-11-24T17:41:20.936Z,6.29
2022-11-24T17:43:56.060Z,6.28
2022-11-24T17:46:26.848Z,6.31
2022-11-24T17:48:54.444Z,6.37
2022-11-24T17:51:23.501Z,6.43
2022-11-24T17:53:52.326Z,6.49
2022-11-24T17:56:24.591Z,6.53
2022-11-24T17:58:59.235Z,6.55
2022-11-24T18:01:28.737Z,6.50
2022-11-24T18:03:55.825Z,6.61
2022-11-24T18:06:26.179Z,6.62
2022-11-24T18:08:54.333Z,6.59
2022-11-24T18:11:30.430Z,6.56
2022-11-24T18:14:01.704Z,6.50
2022-11-24T18:16:31.253Z,6.45
2022-11-24T18:19:09.955Z,6.40
2022-11-24T18:21:41.411Z,6.35
2022-11-24T18:24:10.028Z,6.31
2022-11-24T18:26:37.351Z,6.23
2022-11-24T18:29:04.931Z,6.15
2022-11-24T18:31:32.442Z,6.19
2022-11-24T18:33:59.812Z,6.16
2022-11-24T18:36:30.341Z,6.21
2022-11-24T18:39:04.282Z,6.31
2022-11-24T18:41:31.963Z,6.39
2022-11-24T18:44:02.417Z,6.45
2022-11-24T18:46:29.366Z,6.47
2022-11-24T18:48:56.196Z,6.46
2022-11-24T18:51:23.823Z,6.49
2022-11-24T18:53:54.657Z,6.54
2022-11-24T18:56:21.451Z,6.59
2022-11-24T18:58:48.276Z,6.67
2022-11-24T19:01:20.371Z,6.76
2022-11-24T19:03:49.586Z,6.81
2022-11-24T19:06:24.806Z,6.86
2022-11-24T19:08:54.445Z,6.89
2022-11-24T19:11:28.358Z,6.91
2022-11-24T19:13:56.577Z,6.94
2022-11-24T19:16:24.275Z,6.96
2022-11-24T19:18:54.006Z,6.97
2022-11-24T19:21:22.273Z,6.96
2022-11-24T19:23:49.816Z,6.97
2022-11-24T19:26:16.789Z,6.97
2022-11-24T19:28:43.893Z,6.93
2022-11-24T19:31:12.915Z,6.86
2022-11-24T19:33:40.364Z,6.83
2022-11-24T19:36:10.886Z,6.77
2022-11-24T19:38:38.027Z,6.77
2022-11-24T19:41:10.648Z,6.73
2022-11-24T19:43:37.867Z,6.70
2022-11-24T19:46:10.011Z,6.71
2022-11-24T19:48:39.122Z,6.76
2022-11-24T19:51:08.541Z,6.80
2022-11-24T19:53:36.204Z,6.78
2022-11-24T19:56:11.296Z,6.77
2022-11-24T19:58:38.665Z,6.74
2022-11-24T20:01:10.451Z,6.73
2022-11-24T20:03:38.417Z,6.65
2022-11-24T20:06:06.677Z,6.63
2022-11-24T20:08:35.382Z,6.65
2022-11-24T20:11:14.071Z,6.68
2022-11-24T20:13:42.678Z,6.78
2022-11-24T20:16:12.376Z,6.79
2022-11-24T20:18:42.491Z,6.76
2022-11-24T20:21:12.798Z,6.78
2022-11-24T20:23:40.629Z,6.77
2022-11-24T20:26:12.757Z,6.75
2022-11-24T20:28:40.195Z,6.75
2022-11-24T20:31:13.112Z,6.80
2022-11-24T20:33:41.031Z,6.85
2022-11-24T20:36:16.812Z,6.91
2022-11-24T20:38:44.805Z,6.95
2022-11-24T20:41:26.866Z,6.99
2022-11-24T20:43:54.823Z,7.01
2022-11-24T20:46:24.358Z,6.99
2022-11-24T20:48:52.806Z,6.96
2022-11-24T20:51:25.594Z,6.94
2022-11-24T20:53:55.403Z,6.93
2022-11-24T20:56:24.807Z,6.93
2022-11-24T20:58:52.269Z,6.94
2022-11-24T21:01:21.974Z,6.91
2022-11-24T21:03:53.418Z,6.91
2022-11-24T21:06:20.255Z,6.90
2022-11-24T21:08:47.084Z,6.88
2022-11-24T21:11:15.230Z,6.82
2022-11-24T21:13:44.659Z,6.70
2022-11-24T21:16:16.458Z,6.62
2022-11-24T21:18:45.155Z,6.57
2022-11-24T21:21:13.146Z,6.55
2022-11-24T21:23:41.418Z,6.58
2022-11-24T21:26:14.883Z,6.62
2022-11-24T21:28:44.697Z,6.68
2022-11-24T21:31:15.167Z,6.77
2022-11-24T21:33:46.952Z,6.77
2022-11-24T21:36:15.774Z,6.68
2022-11-24T21:38:43.010Z,6.63
2022-11-24T21:41:11.907Z,6.62
2022-11-24T21:43:38.742Z,6.66
2022-11-24T21:46:13.529Z,6.66
2022-11-24T21:48:41.936Z,6.60
2022-11-24T21:51:13.601Z,6.54
2022-11-24T21:53:41.297Z,6.42
2022-11-24T21:56:12.994Z,6.24
2022-11-24T21:58:57.460Z,6.09
2022-11-24T22:01:27.607Z,5.85
2022-11-24T22:03:54.733Z,5.80
2022-11-24T22:06:21.511Z,5.77
2022-11-24T22:08:49.193Z,5.83
2022-11-24T22:11:24.793Z,5.87
2022-11-24T22:13:52.376Z,5.88
2022-11-24T22:16:21.888Z,5.84
2022-11-24T22:18:49.494Z,5.77
2022-11-24T22:21:18.617Z,5.78
2022-11-24T22:23:45.822Z,5.72
2022-11-24T22:26:18.436Z,5.63
2022-11-24T22:28:45.822Z,5.58
2022-11-24T22:31:15.861Z,5.50
2022-11-24T22:33:46.499Z,5.50
2022-11-24T22:36:14.759Z,5.42
2022-11-24T22:38:42.324Z,5.38
2022-11-24T22:41:14.293Z,5.35
2022-11-24T22:43:42.839Z,5.32
2022-11-24T22:46:14.916Z,5.34
2022-11-24T22:48:42.299Z,5.33
2022-11-24T22:51:14.957Z,5.31
2022-11-24T22:53:42.622Z,5.29
2022-11-24T22:56:11.294Z,5.26
2022-11-24T22:58:39.638Z,5.24
2022-11-24T23:01:08.623Z,5.27
2022-11-24T23:03:36.483Z,5.35
2022-11-24T23:06:05.888Z,5.42
2022-11-24T23:08:34.307Z,5.47
2022-11-24T23:11:16.753Z,5.43
2022-11-24T23:13:44.270Z,5.31
2022-11-24T23:16:16.646Z,5.28
2022-11-24T23:18:44.874Z,5.37
2022-11-24T23:21:38.495Z,5.56
2022-11-24T23:24:06.554Z,5.70
2022-11-24T23:26:35.929Z,5.75
2022-11-24T23:29:03.453Z,5.70
2022-11-24T23:31:30.485Z,5.56
2022-11-24T23:34:02.559Z,5.49
2022-11-24T23:36:30.134Z,5.38
2022-11-24T23:39:00.978Z,5.27
2022-11-24T23:41:30.374Z,5.17
2022-11-24T23:43:57.164Z,5.07
2022-11-24T23:46:26.064Z,4.99
2022-11-24T23:48:53.941Z,4.90
2022-11-24T23:51:22.028Z,4.81
2022-11-24T23:53:49.526Z,4.76
2022-11-24T23:56:19.393Z,4.71
2022-11-24T23:58:46.261Z,4.69
